createdAt,value
2022-10-19T03:56:46.702Z,7.50
2022-10-19T04:00:12.726Z,7.20
2022-10-19T04:07:04.467Z,6.30
2022-10-19T04:10:28.498Z,6.30
2022-10-19T04:13:52.751Z,7.00
2022-10-19T04:17:16.044Z,6.60
2022-10-19T04:20:42.150Z,6.40
2022-10-19T04:24:07.865Z,6.50
2022-10-19T04:27:31.393Z,6.50
2022-10-19T04:30:56.503Z,6.50
2022-10-19T04:34:20.524Z,6.90
2022-10-19T04:37:43.821Z,6.70
2022-10-19T04:41:09.654Z,6.00
2022-10-19T04:44:32.856Z,7.40
2022-10-19T04:47:56.143Z,7.60
2022-10-19T04:51:19.896Z,27.50
2022-10-19T04:54:42.885Z,15.40
2022-10-19T04:58:05.959Z,8.00
2022-10-19T05:01:30.749Z,5.60
2022-10-19T05:04:54.346Z,5.10
2022-10-19T05:08:17.416Z,5.30
2022-10-19T05:11:40.544Z,5.10
2022-10-19T05:15:04.885Z,4.30
2022-10-19T05:18:28.953Z,4.50
2022-10-19T05:21:52.047Z,4.70
2022-10-19T05:25:15.391Z,5.20
2022-10-19T05:28:39.166Z,5.10
2022-10-19T05:32:02.217Z,4.90
2022-10-19T05:35:26.069Z,5.20
2022-10-19T05:38:51.035Z,6.20
2022-10-19T05:42:14.143Z,6.00
2022-10-19T05:45:37.722Z,6.00
2022-10-19T05:49:01.562Z,4.50
2022-10-19T05:52:24.832Z,4.30
2022-10-19T05:55:47.976Z,4.50
2022-10-19T05:59:15.222Z,4.30
2022-10-19T06:02:38.522Z,4.10
2022-10-19T06:06:03.358Z,3.60
2022-10-19T06:09:27.159Z,4.60
2022-10-19T06:12:50.358Z,4.50
2022-10-19T06:16:15.658Z,3.50
2022-10-19T06:19:39.161Z,4.20
2022-10-19T06:23:02.470Z,3.80
2022-10-19T06:26:26.564Z,3.60
2022-10-19T06:29:49.643Z,4.40
2022-10-19T06:33:12.857Z,3.30
2022-10-19T06:36:36.507Z,3.90
2022-10-19T06:40:03.597Z,3.20
2022-10-19T06:43:30.145Z,3.60
2022-10-19T06:46:53.568Z,3.80
2022-10-19T06:50:17.132Z,3.00
2022-10-19T06:53:40.670Z,3.20
2022-10-19T06:57:03.869Z,2.60
2022-10-19T07:00:26.983Z,2.70
2022-10-19T07:03:52.022Z,2.60
2022-10-19T07:07:15.112Z,2.30
2022-10-19T07:10:38.415Z,2.30
2022-10-19T07:14:01.482Z,2.90
2022-10-19T07:17:24.674Z,2.30
2022-10-19T07:20:55.494Z,2.30
2022-10-19T07:24:19.224Z,2.30
2022-10-19T07:27:42.584Z,2.20
2022-10-19T07:31:08.356Z,2.50
2022-10-19T07:34:31.536Z,2.60
2022-10-19T07:37:54.626Z,2.30
2022-10-19T07:41:19.856Z,3.30
2022-10-19T07:44:43.128Z,3.20
2022-10-19T07:48:06.861Z,2.80
2022-10-19T07:51:30.163Z,2.70
2022-10-19T07:54:54.730Z,2.10
2022-10-19T07:58:17.753Z,2.80
2022-10-19T08:01:41.625Z,2.80
2022-10-19T08:05:07.996Z,3.20
2022-10-19T08:11:57.598Z,4.70
2022-10-19T08:15:20.797Z,3.40
2022-10-19T08:18:43.881Z,3.10
2022-10-19T08:22:07.219Z,2.80
2022-10-19T08:25:30.502Z,3.00
2022-10-19T08:28:58.189Z,2.60
2022-10-19T08:32:21.532Z,2.80
2022-10-19T08:35:44.886Z,2.70
2022-10-19T08:39:11.832Z,1.70
2022-10-19T08:42:47.142Z,2.60
2022-10-19T08:46:19.428Z,1.80
2022-10-19T08:49:42.835Z,1.90
2022-10-19T08:53:11.571Z,1.80
2022-10-19T08:56:50.561Z,2.20
2022-10-19T09:00:23.860Z,2.70
2022-10-19T09:03:55.309Z,2.60
2022-10-19T09:07:26.090Z,2.10
2022-10-19T09:14:22.067Z,2.20
2022-10-19T09:17:45.167Z,1.90
2022-10-19T09:21:14.824Z,1.90
2022-10-19T09:28:19.768Z,3.60
2022-10-19T09:31:42.908Z,3.80
2022-10-19T09:35:17.397Z,2.20
2022-10-19T09:38:40.539Z,2.70
2022-10-19T09:42:20.614Z,2.60
2022-10-19T09:45:49.462Z,1.90
2022-10-19T09:49:12.643Z,2.80
2022-10-19T09:52:38.108Z,1.60
2022-10-19T09:56:05.974Z,1.70
2022-10-19T09:59:33.435Z,1.50
2022-10-19T10:02:56.724Z,2.10
2022-10-19T10:06:21.977Z,1.50
2022-10-19T10:09:45.457Z,1.80
2022-10-19T10:13:16.369Z,1.50
2022-10-19T10:16:39.623Z,1.70
2022-10-19T10:20:17.623Z,1.90
2022-10-19T10:23:41.183Z,2.00
2022-10-19T10:27:06.109Z,3.00
2022-10-19T10:30:35.378Z,5.30
2022-10-19T10:34:10.716Z,3.30
2022-10-19T10:37:46.371Z,4.50
2022-10-19T10:41:15.579Z,5.00
2022-10-19T10:44:45.111Z,3.20
2022-10-19T10:48:20.173Z,2.50
2022-10-19T10:51:50.649Z,2.80
2022-10-19T10:55:18.370Z,2.60
2022-10-19T10:58:48.202Z,0.80
2022-10-19T11:02:19.406Z,0.60
2022-10-19T11:05:45.574Z,0.80
2022-10-19T11:09:17.036Z,0.40
2022-10-19T11:12:44.928Z,0.70
2022-10-19T11:16:14.612Z,0.70
2022-10-19T11:19:41.415Z,0.80
2022-10-19T11:23:13.466Z,0.90
2022-10-19T11:26:48.613Z,0.90
2022-10-19T11:30:14.683Z,1.30
2022-10-19T11:33:53.371Z,2.10
2022-10-19T11:37:24.789Z,1.40
2022-10-19T11:41:17.855Z,2.60
2022-10-19T11:44:57.145Z,5.70
2022-10-19T11:48:37.666Z,3.50
2022-10-19T11:52:07.282Z,3.20
2022-10-19T11:55:40.938Z,3.00
2022-10-19T11:59:14.915Z,1.70
2022-10-19T12:03:06.373Z,1.40
2022-10-19T12:06:35.919Z,6.90
2022-10-19T12:13:33.949Z,0.80
2022-10-19T12:17:01.869Z,1.10
2022-10-19T12:20:32.301Z,0.90
2022-10-19T12:23:58.543Z,1.00
2022-10-19T12:27:29.446Z,1.00
2022-10-19T12:30:53.373Z,7.20
2022-10-19T12:34:27.271Z,3.00
2022-10-19T12:37:57.571Z,1.50
2022-10-19T12:41:29.051Z,2.60
2022-10-19T12:45:14.332Z,3.60
2022-10-19T12:48:38.620Z,2.10
2022-10-19T12:52:02.966Z,1.40
2022-10-19T12:55:33.947Z,0.70
2022-10-19T12:59:00.682Z,0.80
2022-10-19T13:02:28.115Z,1.00
2022-10-19T13:05:57.366Z,0.80
2022-10-19T13:09:26.117Z,1.00
2022-10-19T13:12:50.374Z,1.00
2022-10-19T13:16:48.226Z,0.80
2022-10-19T13:20:48.056Z,0.60
2022-10-19T13:24:30.439Z,0.90
2022-10-19T13:27:55.183Z,0.70
2022-10-19T13:31:27.663Z,0.80
2022-10-19T13:34:50.774Z,0.90
2022-10-19T13:38:31.514Z,0.90
2022-10-19T13:41:56.430Z,1.30
2022-10-19T13:45:23.559Z,1.00
2022-10-19T13:49:17.144Z,1.20
2022-10-19T13:53:27.282Z,1.60
2022-10-19T13:57:05.778Z,1.30
2022-10-19T14:00:34.657Z,2.10
2022-10-19T14:04:17.202Z,2.30
2022-10-19T14:07:49.037Z,2.70
2022-10-19T14:11:16.692Z,3.60
2022-10-19T14:18:24.156Z,1.90
2022-10-19T14:21:47.552Z,1.10
2022-10-19T14:25:19.886Z,6.60
2022-10-19T14:28:43.180Z,2.60
2022-10-19T14:32:08.353Z,0.70
2022-10-19T14:35:33.864Z,1.00
2022-10-19T14:38:57.294Z,0.80
2022-10-19T14:42:20.355Z,0.80
2022-10-19T14:45:43.492Z,0.90
2022-10-19T14:49:09.926Z,0.80
2022-10-19T14:52:37.934Z,1.10
2022-10-19T14:56:05.821Z,1.10
2022-10-19T14:59:31.865Z,1.10
2022-10-19T15:03:00.292Z,1.40
2022-10-19T15:06:28.009Z,1.50
2022-10-19T15:09:54.659Z,1.20
2022-10-19T15:13:24.913Z,2.50
2022-10-19T15:16:52.205Z,3.00
2022-10-19T15:20:25.011Z,2.90
2022-10-19T15:23:49.143Z,4.00
2022-10-19T15:27:20.825Z,1.80
2022-10-19T15:30:43.890Z,2.00
2022-10-19T15:34:21.666Z,1.90
2022-10-19T15:37:47.888Z,1.80
2022-10-19T15:41:19.015Z,1.90
2022-10-19T15:44:43.758Z,3.40
2022-10-19T15:48:26.135Z,3.10
2022-10-19T15:51:50.256Z,3.20
2022-10-19T15:55:16.612Z,4.30
2022-10-19T15:58:39.646Z,4.40
2022-10-19T16:02:12.329Z,5.30
2022-10-19T16:05:36.560Z,3.50
2022-10-19T16:09:01.086Z,5.70
2022-10-19T16:12:26.506Z,29.40
2022-10-19T16:15:56.783Z,15.90
2022-10-19T16:19:33.411Z,5.60
2022-10-19T16:22:57.394Z,10.50
2022-10-19T16:26:21.780Z,18.90
2022-10-19T16:29:45.287Z,21.20
2022-10-19T16:33:08.621Z,24.60
2022-10-19T16:36:31.765Z,31.10
2022-10-19T16:39:55.018Z,16.60
2022-10-19T16:43:17.984Z,20.50
2022-10-19T16:46:41.421Z,15.60
2022-10-19T16:50:06.748Z,13.80
2022-10-19T16:53:29.983Z,10.60
2022-10-19T16:56:54.831Z,11.20
2022-10-19T17:00:18.060Z,9.50
2022-10-19T17:03:41.119Z,11.00
2022-10-19T17:07:04.720Z,11.40
2022-10-19T17:10:28.105Z,13.20
2022-10-19T17:13:53.680Z,16.20
2022-10-19T17:17:17.048Z,11.70
2022-10-19T17:20:40.182Z,16.40
2022-10-19T17:24:05.437Z,30.40
2022-10-19T17:27:28.639Z,15.70
2022-10-19T17:30:52.123Z,25.80
2022-10-19T17:34:15.266Z,28.70
2022-10-19T17:37:39.011Z,27.30
2022-10-19T17:41:04.287Z,27.60
2022-10-19T17:44:28.143Z,33.00
2022-10-19T17:47:51.252Z,20.60
2022-10-19T17:51:17.232Z,18.40
2022-10-19T17:54:48.858Z,28.90
2022-10-19T17:58:23.487Z,38.70
2022-10-19T18:01:46.730Z,31.90
2022-10-19T18:05:10.686Z,33.70
2022-10-19T18:08:36.878Z,26.40
2022-10-19T18:12:03.469Z,34.70
2022-10-19T18:15:29.471Z,28.00
2022-10-19T18:18:56.264Z,31.50
2022-10-19T18:22:21.136Z,27.20
2022-10-19T18:25:53.818Z,25.70
2022-10-19T18:29:20.764Z,25.10
2022-10-19T18:32:43.836Z,32.40
2022-10-19T18:36:09.792Z,30.30
2022-10-19T18:39:32.968Z,44.50
2022-10-19T18:42:56.588Z,51.50
2022-10-19T18:46:20.759Z,45.10
2022-10-19T18:49:43.804Z,33.90
2022-10-19T18:53:06.867Z,39.20
2022-10-19T18:56:32.618Z,45.70
2022-10-19T18:59:55.792Z,41.20
2022-10-19T19:03:19.893Z,38.90
2022-10-19T19:06:42.952Z,33.70
2022-10-19T19:10:07.613Z,22.60
2022-10-19T19:13:30.962Z,23.60
2022-10-19T19:16:54.240Z,22.70
2022-10-19T19:20:17.622Z,23.40
2022-10-19T19:23:40.729Z,22.30
2022-10-19T19:27:04.247Z,19.50
2022-10-19T19:30:27.612Z,26.00
2022-10-19T19:33:51.536Z,48.10
2022-10-19T19:37:15.212Z,21.70
2022-10-19T19:40:40.730Z,15.90
2022-10-19T19:44:04.238Z,14.40
2022-10-19T19:47:27.379Z,13.60
2022-10-19T19:50:50.711Z,16.90
2022-10-19T19:54:13.936Z,15.90
2022-10-19T19:57:37.386Z,15.00
2022-10-19T20:01:12.121Z,14.70
2022-10-19T20:04:36.514Z,16.40
2022-10-19T20:08:00.723Z,18.90
2022-10-19T20:11:25.433Z,21.10
2022-10-19T20:14:48.545Z,21.30
2022-10-19T20:18:11.566Z,18.70
2022-10-19T20:21:34.583Z,20.00
2022-10-19T20:24:57.626Z,25.10
2022-10-19T20:28:21.348Z,25.40
2022-10-19T20:31:44.669Z,28.30
2022-10-19T20:35:08.798Z,27.90
2022-10-19T20:38:32.089Z,28.80
2022-10-19T20:41:55.221Z,26.90
2022-10-19T20:45:18.381Z,30.20
2022-10-19T20:48:41.571Z,33.60
2022-10-19T20:52:04.860Z,32.40
2022-10-19T20:55:27.965Z,31.80
2022-10-19T20:58:55.685Z,31.10
2022-10-19T21:02:18.815Z,30.90
2022-10-19T21:05:41.839Z,29.10
2022-10-19T21:09:05.270Z,29.20
2022-10-19T21:12:28.360Z,26.90
2022-10-19T21:15:51.458Z,25.00
2022-10-19T21:19:17.167Z,27.30
2022-10-19T21:22:41.087Z,26.30
2022-10-19T21:26:04.468Z,26.40
2022-10-19T21:29:27.680Z,23.90
2022-10-19T21:32:50.786Z,20.10
2022-10-19T21:36:15.110Z,20.30
2022-10-19T21:39:38.923Z,22.30
2022-10-19T21:43:02.388Z,23.60
2022-10-19T21:46:26.233Z,23.50
2022-10-19T21:49:49.279Z,21.90
2022-10-19T21:53:12.290Z,27.90
2022-10-19T21:56:36.436Z,29.20
2022-10-19T21:59:59.796Z,31.30
2022-10-19T22:03:22.822Z,30.00
2022-10-19T22:06:46.763Z,28.80
2022-10-19T22:10:10.418Z,27.70
2022-10-19T22:13:34.227Z,26.00
2022-10-19T22:16:57.338Z,22.90
2022-10-19T22:20:20.645Z,23.10
2022-10-19T22:23:44.580Z,23.10
2022-10-19T22:27:07.988Z,21.80
2022-10-19T22:30:31.267Z,19.40
2022-10-19T22:33:54.399Z,20.20
2022-10-19T22:37:17.623Z,19.80
2022-10-19T22:40:40.665Z,19.90
2022-10-19T22:44:04.124Z,19.90
2022-10-19T22:47:27.442Z,20.50
